createdAt,value
2022-09-26T07:18:02.187Z,99.90
2022-09-26T07:20:52.144Z,99.90
2022-09-26T07:23:58.285Z,99.90
2022-09-26T07:26:26.414Z,99.90
2022-09-26T07:28:54.969Z,99.90
2022-09-26T07:31:24.337Z,99.90
2022-09-26T07:34:10.214Z,99.90
2022-09-26T07:36:40.753Z,99.90
2022-09-26T07:39:09.050Z,99.50
2022-09-26T07:41:36.205Z,99.50
2022-09-26T07:47:09.209Z,99.00
2022-09-26T07:49:55.006Z,97.80
2022-09-26T07:52:42.261Z,96.90
2022-09-26T07:58:07.202Z,96.10
2022-09-26T08:00:56.911Z,95.40
2022-09-26T08:03:46.200Z,96.50
2022-09-26T08:06:26.249Z,98.40
2022-09-26T08:08:54.365Z,99.90
2022-09-26T08:11:40.418Z,99.90
2022-09-26T08:14:14.378Z,99.90
2022-09-26T08:16:57.141Z,99.90
2022-09-26T08:19:24.603Z,99.90
2022-09-26T08:21:51.955Z,99.90
2022-09-26T08:24:20.142Z,99.90
2022-09-26T08:27:06.484Z,99.90
2022-09-26T08:29:37.065Z,99.90
2022-09-26T08:32:04.296Z,99.90
2022-09-26T08:34:35.485Z,99.90
2022-09-26T08:48:52.186Z,99.90
2022-09-26T08:51:31.783Z,99.90
2022-09-26T08:54:05.222Z,99.90
2022-09-26T08:56:35.576Z,99.90
2022-09-26T08:59:05.058Z,99.90
2022-09-26T09:01:39.561Z,99.60
2022-09-26T09:04:40.664Z,98.90
2022-09-26T09:07:15.244Z,99.30
2022-09-26T09:09:42.347Z,99.60
2022-09-26T09:12:32.411Z,99.10
2022-09-26T09:15:38.908Z,98.50
2022-09-26T09:18:29.405Z,97.20
2022-09-26T09:21:44.225Z,97.30
2022-09-26T09:24:30.324Z,96.80
2022-09-26T09:29:58.696Z,94.10
2022-09-26T09:32:50.767Z,92.80
2022-09-26T09:35:35.413Z,92.40
2022-09-26T09:38:22.932Z,92.10
2022-09-26T09:41:45.617Z,92.10
2022-09-26T09:44:15.865Z,92.50
2022-09-26T09:46:43.208Z,92.50
2022-09-26T09:49:10.227Z,92.20
2022-09-26T09:51:39.446Z,90.80
2022-09-26T09:54:22.261Z,91.20
2022-09-26T09:56:52.778Z,91.50
2022-09-26T09:59:39.336Z,90.90
2022-09-26T10:02:30.011Z,90.80
2022-09-26T10:05:16.495Z,89.40
2022-09-26T10:07:48.571Z,90.00
2022-09-26T10:11:02.918Z,87.10
2022-09-26T10:14:02.088Z,87.50
2022-09-26T10:17:10.385Z,87.20
2022-09-26T10:19:45.676Z,87.20
2022-09-26T10:22:37.447Z,88.00
2022-09-26T10:25:08.724Z,88.60
2022-09-26T10:27:40.250Z,85.70
2022-09-26T10:30:21.601Z,83.50
2022-09-26T10:32:56.264Z,83.90
2022-09-26T10:35:46.357Z,83.20
2022-09-26T10:38:23.741Z,82.20
2022-09-26T10:40:59.490Z,81.80
2022-09-26T10:43:32.871Z,80.20
2022-09-26T10:46:16.393Z,75.60
2022-09-26T10:49:03.347Z,76.60
2022-09-26T10:51:54.630Z,79.40
2022-09-26T10:54:23.672Z,79.50
2022-09-26T10:56:54.369Z,77.30
2022-09-26T10:59:25.427Z,76.40
2022-09-26T11:01:56.097Z,75.60
2022-09-26T11:04:44.394Z,74.40
2022-09-26T11:07:44.975Z,74.70
2022-09-26T11:10:32.717Z,73.70
2022-09-26T11:13:32.323Z,71.60
2022-09-26T11:18:37.270Z,69.60
2022-09-26T11:21:28.408Z,70.20
2022-09-26T11:24:03.851Z,68.90
2022-09-26T11:26:34.278Z,68.50
2022-09-26T11:29:14.353Z,68.70
2022-09-26T11:31:55.124Z,68.60
2022-09-26T11:34:44.369Z,67.40
2022-09-26T11:37:31.119Z,67.40
2022-09-26T11:40:15.047Z,67.90
2022-09-26T11:43:01.235Z,66.70
2022-09-26T11:45:38.747Z,67.90
2022-09-26T11:49:02.775Z,67.90
2022-09-26T11:52:02.304Z,68.20
2022-09-26T11:54:33.738Z,68.60
2022-09-26T11:57:08.713Z,70.60
2022-09-26T11:59:46.943Z,72.30
2022-09-26T12:02:43.356Z,73.10
2022-09-26T12:05:14.154Z,73.60
2022-09-26T12:07:52.558Z,73.40
2022-09-26T12:10:42.855Z,76.20
2022-09-26T12:13:13.905Z,77.60
2022-09-26T12:15:44.076Z,78.20
2022-09-26T12:18:28.625Z,78.60
2022-09-26T12:21:08.368Z,79.70
2022-09-26T12:23:45.017Z,82.00
2022-09-26T12:26:27.418Z,82.20
2022-09-26T12:29:09.342Z,83.90
2022-09-26T12:31:36.325Z,85.90
2022-09-26T12:34:10.098Z,87.20
2022-09-26T12:36:40.631Z,88.70
2022-09-26T12:39:14.683Z,90.00
2022-09-26T12:42:01.941Z,90.00
2022-09-26T12:44:31.372Z,90.00
2022-09-26T12:47:07.463Z,90.40
2022-09-26T12:49:45.282Z,90.90
2022-09-26T12:52:12.208Z,91.30
2022-09-26T12:54:40.448Z,91.60
2022-09-26T12:57:26.118Z,91.80
2022-09-26T12:59:56.168Z,92.10
2022-09-26T13:02:28.792Z,91.70
2022-09-26T13:05:02.461Z,91.40
2022-09-26T13:07:53.561Z,91.30
2022-09-26T13:10:23.389Z,91.30
2022-09-26T13:13:02.703Z,91.30
2022-09-26T13:15:50.685Z,91.30
2022-09-26T13:18:24.376Z,91.30
2022-09-26T14:45:16.797Z,93.00
2022-09-26T14:47:45.502Z,93.30
2022-09-26T14:50:18.138Z,93.20
2022-09-26T14:52:57.554Z,93.20
2022-09-26T14:55:25.483Z,93.10
2022-09-26T14:57:52.800Z,93.50
2022-09-26T15:00:35.146Z,93.80
2022-09-26T15:03:04.236Z,93.90
2022-09-26T15:05:31.927Z,94.00
2022-09-26T15:08:01.046Z,94.10
2022-09-26T15:10:37.178Z,94.30
2022-09-26T15:13:07.177Z,94.40
2022-09-26T15:15:52.991Z,94.60
2022-09-26T15:18:38.145Z,94.60
2022-09-26T15:21:19.259Z,94.50
2022-09-26T15:23:48.376Z,94.50
2022-09-26T15:26:16.974Z,94.60
2022-09-26T15:28:46.963Z,94.60
2022-09-26T15:31:26.393Z,94.70
2022-09-26T15:34:04.420Z,94.80
2022-09-26T15:36:35.049Z,94.90
2022-09-26T15:39:07.495Z,95.10
2022-09-26T15:41:53.134Z,95.20
2022-09-26T15:44:22.764Z,95.50
2022-09-26T15:46:50.088Z,95.80
2022-09-26T15:49:21.513Z,96.10
2022-09-26T15:51:55.820Z,96.50
2022-09-26T15:54:30.280Z,96.70
2022-09-26T15:56:59.649Z,96.90
2022-09-26T15:59:29.740Z,97.20
2022-09-26T16:01:57.007Z,97.40
2022-09-26T16:04:27.222Z,97.70
2022-09-26T16:07:04.992Z,97.90
2022-09-26T16:09:40.498Z,98.20
2022-09-26T16:12:12.944Z,98.50
2022-09-26T16:14:46.927Z,98.90
2022-09-26T16:17:20.359Z,99.20
2022-09-26T16:19:48.946Z,99.60
2022-09-26T16:22:40.101Z,99.90
2022-09-26T16:25:19.316Z,99.90
2022-09-26T16:27:47.688Z,99.90
2022-09-26T16:30:27.621Z,99.90
2022-09-26T16:32:55.624Z,99.90
2022-09-26T16:35:29.846Z,99.90
2022-09-26T16:38:01.704Z,99.90
2022-09-26T16:40:33.561Z,99.90
2022-09-26T16:43:04.415Z,99.90
2022-09-26T16:45:31.423Z,99.90
2022-09-26T16:47:58.478Z,99.90
2022-09-26T16:50:28.932Z,99.90
2022-09-26T16:52:56.092Z,99.90
2022-09-26T16:55:24.722Z,99.90
2022-09-26T16:57:57.105Z,99.90
2022-09-26T17:00:51.470Z,99.90
2022-09-26T17:03:24.547Z,99.90
2022-09-26T17:05:52.500Z,99.90
2022-09-26T17:08:20.172Z,99.90
2022-09-26T17:10:47.439Z,99.90
2022-09-26T17:13:17.116Z,99.90
2022-09-26T17:15:48.625Z,99.90
2022-09-26T17:18:19.496Z,99.90
2022-09-26T17:20:47.200Z,99.90
2022-09-26T17:23:38.044Z,99.90
2022-09-26T17:26:01.622Z,99.90
2022-09-26T17:28:36.332Z,99.90
2022-09-26T17:31:07.441Z,99.90
2022-09-26T17:33:40.796Z,99.90
2022-09-26T17:36:11.113Z,99.90
2022-09-26T17:38:40.691Z,99.90
2022-09-26T17:41:09.433Z,99.90
2022-09-26T17:43:36.468Z,99.90
2022-09-26T17:46:03.732Z,99.90
2022-09-26T17:48:34.173Z,99.90
2022-09-26T17:51:02.248Z,99.90
2022-09-26T17:53:39.751Z,99.90
2022-09-26T17:56:07.740Z,99.90
2022-09-26T17:58:35.206Z,99.90
2022-09-26T18:01:03.840Z,99.90
2022-09-26T18:03:32.874Z,99.90
2022-09-26T18:06:01.378Z,99.90
2022-09-26T18:08:30.126Z,99.90
2022-09-26T18:10:59.090Z,99.90
2022-09-26T18:13:31.597Z,99.90
2022-09-26T18:16:02.324Z,99.90
2022-09-26T18:18:30.988Z,99.90
2022-09-26T18:21:03.197Z,99.90
2022-09-26T18:23:38.419Z,99.90
2022-09-26T18:26:08.161Z,99.90
2022-09-26T18:28:39.025Z,99.90
2022-09-26T18:31:07.595Z,99.90
2022-09-26T18:33:38.031Z,99.90
2022-09-26T18:36:05.425Z,99.90
2022-09-26T18:38:32.391Z,99.90
2022-09-26T18:40:59.590Z,99.90
2022-09-26T18:43:32.154Z,99.90
2022-09-26T18:45:59.324Z,99.90
2022-09-26T18:48:29.490Z,99.90
2022-09-26T18:50:57.740Z,99.90
2022-09-26T18:53:30.446Z,99.90
2022-09-26T18:56:15.788Z,99.90
2022-09-26T18:58:43.963Z,99.90
2022-09-26T19:01:22.142Z,99.90
2022-09-26T19:03:49.426Z,99.90
2022-09-26T19:06:19.063Z,99.90
2022-09-26T19:08:47.374Z,99.90
2022-09-26T19:11:21.489Z,99.90
2022-09-26T19:13:51.390Z,99.90
2022-09-26T19:16:18.772Z,99.90
2022-09-26T19:18:46.259Z,99.90
2022-09-26T19:21:22.612Z,99.90
2022-09-26T19:23:50.621Z,99.90
2022-09-26T19:26:24.856Z,99.90
2022-09-26T19:28:51.914Z,99.90
2022-09-26T19:31:19.080Z,99.90
2022-09-26T19:33:48.114Z,99.90
2022-09-26T19:36:16.388Z,99.90
2022-09-26T19:38:43.453Z,99.90
2022-09-26T19:41:10.765Z,99.90
2022-09-26T19:43:38.187Z,99.90
2022-09-26T19:46:07.448Z,99.90
2022-09-26T19:48:38.856Z,99.90
2022-09-26T19:51:06.965Z,99.90
2022-09-26T19:53:34.845Z,99.90
2022-09-26T19:56:09.463Z,99.90
2022-09-26T19:58:36.654Z,99.90
2022-09-26T20:01:13.194Z,99.90
2022-09-26T20:03:41.950Z,99.90
2022-09-26T20:06:27.050Z,99.90
2022-09-26T20:09:01.599Z,99.90
2022-09-26T20:11:29.036Z,99.90
2022-09-26T20:14:14.674Z,99.90
2022-09-26T20:16:42.371Z,99.90
2022-09-26T20:19:16.879Z,99.90
2022-09-26T20:21:44.877Z,99.90
2022-09-26T20:24:14.737Z,99.90
2022-09-26T20:26:42.561Z,99.90
2022-09-26T20:29:15.811Z,99.90
2022-09-26T20:31:43.790Z,99.90
2022-09-26T20:34:11.668Z,99.90
2022-09-26T20:36:43.640Z,99.90
2022-09-26T20:39:12.659Z,99.90
2022-09-26T20:41:40.936Z,99.90
2022-09-26T20:44:12.370Z,99.90
2022-09-26T20:46:40.652Z,99.90
2022-09-26T20:49:08.831Z,99.90
2022-09-26T20:51:35.990Z,99.90
2022-09-26T20:54:03.266Z,99.90
2022-09-26T20:56:30.252Z,99.90
2022-09-26T20:58:59.704Z,99.90
2022-09-26T21:01:27.146Z,99.90
2022-09-26T21:03:55.379Z,99.90
2022-09-26T21:06:23.851Z,99.90
2022-09-26T21:08:50.879Z,99.90
2022-09-26T21:11:19.422Z,99.90
2022-09-26T21:13:46.641Z,99.90
2022-09-26T21:16:14.667Z,99.90
2022-09-26T21:18:42.910Z,99.90
2022-09-26T21:21:16.481Z,99.90
2022-09-26T21:23:53.593Z,99.90
2022-09-26T21:26:31.404Z,99.90
2022-09-26T21:29:00.317Z,99.90
2022-09-26T21:31:29.420Z,99.90
2022-09-26T21:33:57.672Z,99.90
2022-09-26T21:36:26.481Z,99.90
2022-09-26T21:38:55.464Z,99.90
2022-09-26T21:41:23.418Z,99.90
2022-09-26T21:43:56.272Z,99.90
2022-09-26T21:46:25.192Z,99.90
2022-09-26T21:48:52.309Z,99.90
2022-09-26T21:51:20.522Z,99.90
2022-09-26T21:54:17.017Z,99.90
2022-09-26T21:56:49.405Z,99.90
2022-09-26T21:59:18.117Z,99.90
2022-09-26T22:01:45.485Z,99.90
2022-09-26T22:04:12.956Z,99.90
2022-09-26T22:06:40.766Z,99.90
2022-09-26T22:12:04.928Z,99.90
2022-09-26T22:14:32.051Z,99.90
2022-09-26T22:16:59.242Z,99.90
2022-09-26T22:19:27.526Z,99.90
2022-09-26T22:21:56.340Z,99.90
2022-09-26T22:24:23.387Z,99.90
2022-09-26T22:26:51.061Z,99.90
2022-09-26T22:29:18.023Z,99.90
2022-09-26T22:31:45.191Z,99.90
2022-09-26T22:34:12.185Z,99.90
2022-09-26T22:36:39.573Z,99.90
2022-09-26T22:39:06.584Z,99.90
2022-09-26T22:41:33.598Z,99.90
2022-09-26T22:44:01.148Z,99.90
2022-09-26T22:46:28.286Z,99.90
2022-09-26T22:48:55.323Z,99.90
2022-09-26T22:51:22.273Z,99.90
2022-09-26T22:53:49.336Z,99.90
2022-09-26T22:56:16.741Z,99.90
2022-09-26T22:58:45.204Z,99.90
2022-09-26T23:01:15.987Z,99.90
2022-09-26T23:03:44.026Z,99.90
2022-09-26T23:06:11.170Z,99.90
2022-09-26T23:08:38.256Z,99.90
2022-09-26T23:11:06.163Z,99.90
2022-09-26T23:13:33.931Z,99.90
2022-09-26T23:16:08.271Z,99.90
2022-09-26T23:18:35.712Z,99.90
2022-09-26T23:21:22.406Z,99.90
2022-09-26T23:23:50.691Z,99.90
2022-09-26T23:26:21.692Z,99.90
2022-09-26T23:28:58.859Z,99.90
2022-09-26T23:31:27.553Z,99.90
2022-09-26T23:33:58.003Z,99.90
2022-09-26T23:36:25.567Z,99.90
2022-09-26T23:38:53.215Z,99.90
2022-09-26T23:41:20.529Z,99.90
2022-09-26T23:43:50.712Z,99.90
2022-09-26T23:46:18.017Z,99.90
2022-09-26T23:48:45.715Z,99.90
2022-09-26T23:51:12.899Z,99.90
2022-09-26T23:53:39.870Z,99.90
2022-09-26T23:56:11.495Z,99.90
2022-09-26T23:58:38.733Z,99.90
